PHENX84 YPJT-YPJT
Flight info
| Callsign | PHENX84 |
|---|---|
| Flight time | 0h 30m |
| Altitude | 2000 |
| Route | YPJT YGAD YRTI YHMH YEAA YPJT |
| Aircraft | EC45/L-SDFGRY/C |
Departure
| Time | 2026-04-26 11:49 |
|---|---|
| Airport | Perth Jandakot Airport (YPJT) |
Arrival
| Time | 2026-04-26 12:19 |
|---|---|
| Airport | Perth Jandakot Airport (YPJT) |
| Time | Latitude | Longitude | Altitude | Speed | Heading |
|---|---|---|---|---|---|
| 2026-04-26 11:32 | -32.09133 | 115.88342 | 95 ft | 0 kts | 359° |
| 2026-04-26 11:36 | -32.09134 | 115.88342 | 95 ft | 0 kts | 356° |
| 2026-04-26 11:46 | -32.09129 | 115.88346 | 95 ft | 0 kts | 244° |
| 2026-04-26 11:46 | -32.09125 | 115.88345 | 102 ft | 4 kts | 240° |
| 2026-04-26 11:46 | -32.09141 | 115.88367 | 133 ft | 2 kts | 240° |
| 2026-04-26 11:46 | -32.09131 | 115.88329 | 156 ft | 3 kts | 240° |
| 2026-04-26 11:47 | -32.09163 | 115.88339 | 176 ft | 7 kts | 239° |
| 2026-04-26 11:47 | -32.09211 | 115.88308 | 235 ft | 15 kts | 238° |
| 2026-04-26 11:47 | -32.09344 | 115.88053 | 384 ft | 49 kts | 236° |
| 2026-04-26 11:47 | -32.09463 | 115.87723 | 373 ft | 37 kts | 236° |
| 2026-04-26 11:48 | -32.09638 | 115.87447 | 426 ft | 51 kts | 224° |
| 2026-04-26 11:48 | -32.09880 | 115.87100 | 459 ft | 65 kts | 223° |
| 2026-04-26 11:48 | -32.10279 | 115.86632 | 460 ft | 97 kts | 221° |
| 2026-04-26 11:48 | -32.10753 | 115.86051 | 531 ft | 93 kts | 222° |
| 2026-04-26 11:49 | -32.11150 | 115.85558 | 777 ft | 74 kts | 223° |
| 2026-04-26 11:49 | -32.11498 | 115.85126 | 896 ft | 75 kts | 220° |
| 2026-04-26 11:49 | -32.11915 | 115.84586 | 924 ft | 104 kts | 222° |
| 2026-04-26 11:49 | -32.12401 | 115.83946 | 990 ft | 104 kts | 223° |
| 2026-04-26 11:50 | -32.12884 | 115.83329 | 996 ft | 104 kts | 222° |
| 2026-04-26 11:50 | -32.13379 | 115.82692 | 997 ft | 105 kts | 221° |
| 2026-04-26 11:50 | -32.13865 | 115.82057 | 986 ft | 109 kts | 221° |
| 2026-04-26 11:50 | -32.14403 | 115.81356 | 992 ft | 116 kts | 221° |
| 2026-04-26 11:51 | -32.14940 | 115.80662 | 995 ft | 113 kts | 222° |
| 2026-04-26 11:51 | -32.15484 | 115.79975 | 1001 ft | 114 kts | 221° |
| 2026-04-26 11:51 | -32.16016 | 115.79290 | 996 ft | 114 kts | 222° |
| 2026-04-26 11:51 | -32.16556 | 115.78599 | 1000 ft | 115 kts | 222° |
| 2026-04-26 11:52 | -32.17106 | 115.77920 | 1000 ft | 113 kts | 222° |
| 2026-04-26 11:52 | -32.17481 | 115.77471 | 984 ft | 122 kts | 223° |
| 2026-04-26 11:52 | -32.18268 | 115.76502 | 998 ft | 124 kts | 223° |
| 2026-04-26 11:52 | -32.18861 | 115.75769 | 1003 ft | 122 kts | 222° |
| 2026-04-26 11:53 | -32.19454 | 115.75035 | 1001 ft | 125 kts | 223° |
| 2026-04-26 11:53 | -32.20037 | 115.74294 | 1005 ft | 122 kts | 223° |
| 2026-04-26 11:53 | -32.20615 | 115.73556 | 1002 ft | 123 kts | 223° |
| 2026-04-26 11:54 | -32.21726 | 115.72054 | 1001 ft | 122 kts | 224° |
| 2026-04-26 11:54 | -32.22279 | 115.71303 | 1005 ft | 120 kts | 225° |
| 2026-04-26 11:54 | -32.22822 | 115.70552 | 866 ft | 118 kts | 246° |
| 2026-04-26 11:54 | -32.22746 | 115.69930 | 610 ft | 125 kts | 287° |
| 2026-04-26 11:55 | -32.22310 | 115.69162 | 631 ft | 109 kts | 314° |
| 2026-04-26 11:55 | -32.21448 | 115.68612 | 784 ft | 104 kts | 341° |
| 2026-04-26 11:55 | -32.20999 | 115.68434 | 818 ft | 102 kts | 341° |
| 2026-04-26 11:55 | -32.20328 | 115.68184 | 892 ft | 101 kts | 343° |
| 2026-04-26 11:56 | -32.19674 | 115.67922 | 932 ft | 98 kts | 343° |
| 2026-04-26 11:56 | -32.19038 | 115.67644 | 1012 ft | 98 kts | 344° |
| 2026-04-26 11:56 | -32.18339 | 115.67299 | 991 ft | 124 kts | 338° |
| 2026-04-26 11:56 | -32.17524 | 115.66911 | 1017 ft | 123 kts | 339° |
| 2026-04-26 11:57 | -32.16743 | 115.66511 | 1014 ft | 121 kts | 338° |
| 2026-04-26 11:57 | -32.15964 | 115.66109 | 1010 ft | 124 kts | 339° |
| 2026-04-26 11:57 | -32.15201 | 115.65640 | 993 ft | 130 kts | 332° |
| 2026-04-26 11:57 | -32.14426 | 115.65035 | 1016 ft | 131 kts | 326° |
| 2026-04-26 11:58 | -32.13691 | 115.64407 | 1007 ft | 134 kts | 325° |
| 2026-04-26 11:58 | -32.12937 | 115.63735 | 1011 ft | 137 kts | 322° |
| 2026-04-26 11:58 | -32.12178 | 115.63080 | 1013 ft | 135 kts | 323° |
| 2026-04-26 11:58 | -32.11401 | 115.62429 | 1017 ft | 140 kts | 324° |
| 2026-04-26 11:59 | -32.10642 | 115.61768 | 1015 ft | 135 kts | 323° |
| 2026-04-26 11:59 | -32.09885 | 115.61128 | 1011 ft | 135 kts | 324° |
| 2026-04-26 11:59 | -32.09114 | 115.60449 | 1020 ft | 140 kts | 323° |
| 2026-04-26 11:59 | -32.08357 | 115.59774 | 1020 ft | 135 kts | 323° |
| 2026-04-26 12:00 | -32.07596 | 115.59105 | 1016 ft | 135 kts | 324° |
| 2026-04-26 12:00 | -32.06858 | 115.58433 | 1015 ft | 134 kts | 323° |
| 2026-04-26 12:00 | -32.06113 | 115.57764 | 1019 ft | 134 kts | 324° |
| 2026-04-26 12:00 | -32.05346 | 115.57099 | 1014 ft | 140 kts | 325° |
| 2026-04-26 12:01 | -32.04574 | 115.56413 | 1030 ft | 135 kts | 323° |
| 2026-04-26 12:01 | -32.03821 | 115.55742 | 1022 ft | 136 kts | 321° |
| 2026-04-26 12:01 | -32.03093 | 115.55074 | 984 ft | 131 kts | 321° |
| 2026-04-26 12:01 | -32.02462 | 115.54269 | 843 ft | 136 kts | 298° |
| 2026-04-26 12:02 | -32.02044 | 115.53286 | 807 ft | 133 kts | 293° |
| 2026-04-26 12:02 | -32.01626 | 115.52312 | 780 ft | 133 kts | 294° |
| 2026-04-26 12:02 | -32.01197 | 115.51351 | 756 ft | 133 kts | 292° |
| 2026-04-26 12:02 | -32.00499 | 115.50758 | 666 ft | 133 kts | 14° |
| 2026-04-26 12:03 | -32.00043 | 115.51438 | 615 ft | 105 kts | 96° |
| 2026-04-26 12:03 | -32.00031 | 115.52205 | 729 ft | 94 kts | 93° |
| 2026-04-26 12:03 | -31.99968 | 115.52938 | 899 ft | 82 kts | 91° |
| 2026-04-26 12:03 | -31.99906 | 115.53568 | 955 ft | 75 kts | 91° |
| 2026-04-26 12:04 | -31.99864 | 115.54184 | 971 ft | 79 kts | 96° |
| 2026-04-26 12:04 | -31.99859 | 115.54957 | 970 ft | 107 kts | 95° |
| 2026-04-26 12:04 | -31.99896 | 115.55827 | 1001 ft | 104 kts | 96° |
| 2026-04-26 12:04 | -31.99910 | 115.56686 | 997 ft | 108 kts | 95° |
| 2026-04-26 12:05 | -31.99911 | 115.57554 | 1010 ft | 103 kts | 94° |
| 2026-04-26 12:05 | -31.99885 | 115.58400 | 1006 ft | 104 kts | 94° |
| 2026-04-26 12:05 | -31.99843 | 115.59257 | 1002 ft | 105 kts | 94° |
| 2026-04-26 12:05 | -31.99812 | 115.60117 | 1004 ft | 104 kts | 94° |
| 2026-04-26 12:06 | -31.99842 | 115.60979 | 1026 ft | 109 kts | 102° |
| 2026-04-26 12:06 | -31.99673 | 115.61933 | 904 ft | 131 kts | 68° |
| 2026-04-26 12:06 | -31.99544 | 115.62956 | 720 ft | 125 kts | 109° |
| 2026-04-26 12:06 | -31.99692 | 115.63955 | 738 ft | 130 kts | 101° |
| 2026-04-26 12:07 | -31.99758 | 115.64959 | 866 ft | 114 kts | 98° |
| 2026-04-26 12:07 | -31.99775 | 115.65905 | 940 ft | 116 kts | 94° |
| 2026-04-26 12:07 | -31.99789 | 115.66859 | 973 ft | 118 kts | 94° |
| 2026-04-26 12:07 | -31.99802 | 115.67815 | 989 ft | 116 kts | 94° |
| 2026-04-26 12:08 | -31.99806 | 115.68767 | 999 ft | 115 kts | 93° |
| 2026-04-26 12:08 | -31.99798 | 115.69700 | 995 ft | 115 kts | 90° |
| 2026-04-26 12:08 | -31.99730 | 115.70652 | 1001 ft | 117 kts | 88° |
| 2026-04-26 12:08 | -31.99625 | 115.71589 | 1005 ft | 114 kts | 85° |
| 2026-04-26 12:09 | -31.99477 | 115.72462 | 1026 ft | 99 kts | 82° |
| 2026-04-26 12:09 | -31.99321 | 115.73242 | 1003 ft | 98 kts | 81° |
| 2026-04-26 12:09 | -31.99175 | 115.74026 | 1001 ft | 100 kts | 83° |
| 2026-04-26 12:09 | -31.99029 | 115.74818 | 1010 ft | 96 kts | 82° |
| 2026-04-26 12:10 | -31.98821 | 115.75567 | 1002 ft | 99 kts | 75° |
| 2026-04-26 12:10 | -31.98522 | 115.76316 | 1006 ft | 102 kts | 65° |
| 2026-04-26 12:10 | -31.98154 | 115.77038 | 916 ft | 103 kts | 63° |
| 2026-04-26 12:10 | -31.97793 | 115.77772 | 686 ft | 104 kts | 65° |
| 2026-04-26 12:11 | -31.97424 | 115.78509 | 584 ft | 105 kts | 65° |
| 2026-04-26 12:11 | -31.97038 | 115.79254 | 540 ft | 107 kts | 63° |
| 2026-04-26 12:11 | -31.96650 | 115.80010 | 521 ft | 106 kts | 62° |
| 2026-04-26 12:11 | -31.96273 | 115.80767 | 518 ft | 107 kts | 63° |
| 2026-04-26 12:12 | -31.95886 | 115.81521 | 496 ft | 111 kts | 61° |
| 2026-04-26 12:12 | -31.95515 | 115.82238 | 547 ft | 92 kts | 63° |
| 2026-04-26 12:12 | -31.95171 | 115.82832 | 513 ft | 87 kts | 64° |
| 2026-04-26 12:12 | -31.94943 | 115.83226 | 485 ft | 88 kts | 62° |
| 2026-04-26 12:13 | -31.94895 | 115.83970 | 632 ft | 64 kts | 103° |
| 2026-04-26 12:13 | -31.95037 | 115.84468 | 638 ft | 65 kts | 141° |
| 2026-04-26 12:13 | -31.95386 | 115.84692 | 737 ft | 56 kts | 157° |
| 2026-04-26 12:13 | -31.95764 | 115.84855 | 909 ft | 65 kts | 159° |
| 2026-04-26 12:14 | -31.96236 | 115.84997 | 874 ft | 82 kts | 166° |
| 2026-04-26 12:14 | -31.96822 | 115.85080 | 738 ft | 87 kts | 175° |
| 2026-04-26 12:14 | -31.97436 | 115.85085 | 612 ft | 90 kts | 182° |
| 2026-04-26 12:14 | -31.98054 | 115.85117 | 464 ft | 85 kts | 174° |
| 2026-04-26 12:15 | -31.98590 | 115.85247 | 519 ft | 73 kts | 167° |
| 2026-04-26 12:15 | -31.99093 | 115.85400 | 518 ft | 78 kts | 170° |
| 2026-04-26 12:15 | -31.99625 | 115.85507 | 520 ft | 77 kts | 174° |
| 2026-04-26 12:15 | -32.00154 | 115.85584 | 527 ft | 76 kts | 173° |
| 2026-04-26 12:16 | -32.00679 | 115.85653 | 528 ft | 73 kts | 173° |
| 2026-04-26 12:16 | -32.01192 | 115.85731 | 517 ft | 76 kts | 172° |
| 2026-04-26 12:16 | -32.01716 | 115.85813 | 506 ft | 76 kts | 172° |
| 2026-04-26 12:16 | -32.02243 | 115.85902 | 504 ft | 76 kts | 172° |
| 2026-04-26 12:17 | -32.02770 | 115.85994 | 501 ft | 77 kts | 173° |
| 2026-04-26 12:17 | -32.03309 | 115.86083 | 501 ft | 77 kts | 172° |
| 2026-04-26 12:17 | -32.03835 | 115.86193 | 502 ft | 75 kts | 168° |
| 2026-04-26 12:17 | -32.04341 | 115.86320 | 486 ft | 77 kts | 164° |
| 2026-04-26 12:18 | -32.04845 | 115.86522 | 501 ft | 78 kts | 156° |
| 2026-04-26 12:18 | -32.05351 | 115.86756 | 504 ft | 77 kts | 158° |
| 2026-04-26 12:18 | -32.05848 | 115.86977 | 503 ft | 77 kts | 162° |
| 2026-04-26 12:18 | -32.06329 | 115.87179 | 516 ft | 66 kts | 160° |
| 2026-04-26 12:19 | -32.06705 | 115.87341 | 515 ft | 50 kts | 162° |
| 2026-04-26 12:19 | -32.07009 | 115.87502 | 502 ft | 47 kts | 160° |
| 2026-04-26 12:19 | -32.07345 | 115.87575 | 498 ft | 51 kts | 173° |
| 2026-04-26 12:19 | -32.07696 | 115.87559 | 523 ft | 48 kts | 188° |
| 2026-04-26 12:20 | -32.08027 | 115.87476 | 523 ft | 47 kts | 188° |
| 2026-04-26 12:20 | -32.08441 | 115.87589 | 561 ft | 74 kts | 154° |
| 2026-04-26 12:20 | -32.08872 | 115.88031 | 346 ft | 89 kts | 140° |
| 2026-04-26 12:20 | -32.09323 | 115.88099 | 238 ft | 53 kts | 208° |
| 2026-04-26 12:21 | -32.09503 | 115.87943 | 134 ft | 7 kts | 206° |
| 2026-04-26 12:21 | -32.09508 | 115.87938 | 109 ft | 2 kts | 207° |
| 2026-04-26 12:21 | -32.09515 | 115.87932 | 96 ft | 1 kts | 206° |
| 2026-04-26 12:21 | -32.09514 | 115.87934 | 95 ft | 0 kts | 206° |